sensor_id;sensor_type;location;lat;lon;timestamp;temperature;humidity
37938;DHT22;23763;48.130;11.602;2023-12-28T00:01:08;6.70;99.90
37938;DHT22;23763;48.130;11.602;2023-12-28T00:03:34;6.70;99.90
37938;DHT22;23763;48.130;11.602;2023-12-28T00:05:59;6.70;99.90
37938;DHT22;23763;48.130;11.602;2023-12-28T00:08:25;6.60;99.90
37938;DHT22;23763;48.130;11.602;2023-12-28T00:10:51;6.60;99.90
37938;DHT22;23763;48.130;11.602;2023-12-28T00:13:17;6.60;99.90
37938;DHT22;23763;48.130;11.602;2023-12-28T00:15:42;6.60;99.90
37938;DHT22;23763;48.130;11.602;2023-12-28T00:18:08;6.50;99.90
37938;DHT22;23763;48.130;11.602;2023-12-28T00:20:34;6.50;99.90
37938;DHT22;23763;48.130;11.602;2023-12-28T00:22:59;6.50;99.90
37938;DHT22;23763;48.130;11.602;2023-12-28T00:25:25;6.50;99.90
37938;DHT22;23763;48.130;11.602;2023-12-28T00:27:51;6.60;99.90
37938;DHT22;23763;48.130;11.602;2023-12-28T00:30:17;6.50;99.90
37938;DHT22;23763;48.130;11.602;2023-12-28T00:32:43;6.40;99.90
37938;DHT22;23763;48.130;11.602;2023-12-28T00:35:10;6.40;99.90
37938;DHT22;23763;48.130;11.602;2023-12-28T00:37:36;6.50;99.90
37938;DHT22;23763;48.130;11.602;2023-12-28T00:40:02;6.50;99.90
37938;DHT22;23763;48.130;11.602;2023-12-28T00:42:27;6.40;99.90
37938;DHT22;23763;48.130;11.602;2023-12-28T00:44:53;6.50;99.90
37938;DHT22;23763;48.130;11.602;2023-12-28T00:47:19;6.40;99.90
37938;DHT22;23763;48.130;11.602;2023-12-28T00:49:44;6.40;99.90
37938;DHT22;23763;48.130;11.602;2023-12-28T00:52:10;6.40;99.90
37938;DHT22;23763;48.130;11.602;2023-12-28T00:54:38;6.30;99.90
37938;DHT22;23763;48.130;11.602;2023-12-28T00:57:04;6.30;99.90
37938;DHT22;23763;48.130;11.602;2023-12-28T00:59:30;6.10;99.90
37938;DHT22;23763;48.130;11.602;2023-12-28T01:01:56;6.00;99.90
37938;DHT22;23763;48.130;11.602;2023-12-28T01:04:22;6.00;99.90
37938;DHT22;23763;48.130;11.602;2023-12-28T01:06:49;6.00;99.90
37938;DHT22;23763;48.130;11.602;2023-12-28T01:09:15;5.90;99.90
37938;DHT22;23763;48.130;11.602;2023-12-28T01:11:40;5.90;99.90
37938;DHT22;23763;48.130;11.602;2023-12-28T01:14:06;5.90;99.90
37938;DHT22;23763;48.130;11.602;2023-12-28T01:16:32;5.90;99.90
37938;DHT22;23763;48.130;11.602;2023-12-28T01:18:58;5.90;99.90
37938;DHT22;23763;48.130;11.602;2023-12-28T01:21:24;5.80;99.90
37938;DHT22;23763;48.130;11.602;2023-12-28T01:23:51;5.80;99.90
37938;DHT22;23763;48.130;11.602;2023-12-28T01:26:16;5.80;99.90
37938;DHT22;23763;48.130;11.602;2023-12-28T01:28:45;5.80;99.90
37938;DHT22;23763;48.130;11.602;2023-12-28T01:31:11;5.80;99.90
37938;DHT22;23763;48.130;11.602;2023-12-28T01:33:38;5.80;99.90
37938;DHT22;23763;48.130;11.602;2023-12-28T01:36:16;5.80;99.90
37938;DHT22;23763;48.130;11.602;2023-12-28T01:38:41;5.80;99.90
37938;DHT22;23763;48.130;11.602;2023-12-28T01:41:07;5.70;99.90
37938;DHT22;23763;48.130;11.602;2023-12-28T01:43:32;5.80;99.90
37938;DHT22;23763;48.130;11.602;2023-12-28T01:45:58;5.70;99.90
37938;DHT22;23763;48.130;11.602;2023-12-28T01:48:24;5.70;99.90
37938;DHT22;23763;48.130;11.602;2023-12-28T01:50:50;5.70;99.90
37938;DHT22;23763;48.130;11.602;2023-12-28T01:53:15;5.70;99.90
37938;DHT22;23763;48.130;11.602;2023-12-28T01:55:41;5.70;99.90
37938;DHT22;23763;48.130;11.602;2023-12-28T01:58:07;5.70;99.90
37938;DHT22;23763;48.130;11.602;2023-12-28T02:00:32;5.70;99.90
37938;DHT22;23763;48.130;11.602;2023-12-28T02:03:00;5.70;99.90
37938;DHT22;23763;48.130;11.602;2023-12-28T02:05:28;5.70;99.90
37938;DHT22;23763;48.130;11.602;2023-12-28T02:07:54;5.80;99.90
37938;DHT22;23763;48.130;11.602;2023-12-28T02:10:19;5.80;99.90
37938;DHT22;23763;48.130;11.602;2023-12-28T02:12:45;5.80;99.90
37938;DHT22;23763;48.130;11.602;2023-12-28T02:15:12;5.90;99.90
37938;DHT22;23763;48.130;11.602;2023-12-28T02:17:47;5.90;99.90
37938;DHT22;23763;48.130;11.602;2023-12-28T02:20:17;6.00;99.90
37938;DHT22;23763;48.130;11.602;2023-12-28T02:22:45;6.10;99.90
37938;DHT22;23763;48.130;11.602;2023-12-28T02:25:12;6.40;99.90
37938;DHT22;23763;48.130;11.602;2023-12-28T02:27:48;6.30;99.90
37938;DHT22;23763;48.130;11.602;2023-12-28T02:30:17;6.30;99.90
37938;DHT22;23763;48.130;11.602;2023-12-28T02:37:49;6.20;99.90
37938;DHT22;23763;48.130;11.602;2023-12-28T02:40:17;6.20;99.90
37938;DHT22;23763;48.130;11.602;2023-12-28T02:42:43;6.20;99.90
37938;DHT22;23763;48.130;11.602;2023-12-28T02:45:09;6.10;99.90
37938;DHT22;23763;48.130;11.602;2023-12-28T02:47:34;6.10;99.90
37938;DHT22;23763;48.130;11.602;2023-12-28T02:50:00;6.10;99.90
37938;DHT22;23763;48.130;11.602;2023-12-28T02:52:26;6.10;99.90
37938;DHT22;23763;48.130;11.602;2023-12-28T02:54:51;6.20;99.90
37938;DHT22;23763;48.130;11.602;2023-12-28T02:57:17;6.30;99.90
37938;DHT22;23763;48.130;11.602;2023-12-28T02:59:46;6.30;99.90
37938;DHT22;23763;48.130;11.602;2023-12-28T03:02:12;6.40;99.90
37938;DHT22;23763;48.130;11.602;2023-12-28T03:04:38;6.40;99.90
37938;DHT22;23763;48.130;11.602;2023-12-28T03:07:05;6.40;99.90
37938;DHT22;23763;48.130;11.602;2023-12-28T03:09:30;6.40;99.90
37938;DHT22;23763;48.130;11.602;2023-12-28T03:11:56;6.40;99.90
37938;DHT22;23763;48.130;11.602;2023-12-28T03:14:22;6.40;99.90
37938;DHT22;23763;48.130;11.602;2023-12-28T03:16:47;6.40;99.90
37938;DHT22;23763;48.130;11.602;2023-12-28T03:19:13;6.40;99.90
37938;DHT22;23763;48.130;11.602;2023-12-28T03:21:40;6.40;99.90
37938;DHT22;23763;48.130;11.602;2023-12-28T03:24:06;6.40;99.90
37938;DHT22;23763;48.130;11.602;2023-12-28T03:26:31;6.50;99.90
37938;DHT22;23763;48.130;11.602;2023-12-28T03:28:57;6.70;99.90
37938;DHT22;23763;48.130;11.602;2023-12-28T03:31:23;6.50;99.90
37938;DHT22;23763;48.130;11.602;2023-12-28T03:33:48;6.50;99.90
37938;DHT22;23763;48.130;11.602;2023-12-28T03:36:18;6.40;99.90
37938;DHT22;23763;48.130;11.602;2023-12-28T03:38:44;6.40;99.90
37938;DHT22;23763;48.130;11.602;2023-12-28T03:41:20;6.40;99.90
37938;DHT22;23763;48.130;11.602;2023-12-28T03:43:46;6.40;99.90
37938;DHT22;23763;48.130;11.602;2023-12-28T03:46:12;6.40;99.90
37938;DHT22;23763;48.130;11.602;2023-12-28T03:48:38;6.50;99.90
37938;DHT22;23763;48.130;11.602;2023-12-28T03:51:04;6.40;99.90
37938;DHT22;23763;48.130;11.602;2023-12-28T03:53:30;6.50;99.90
37938;DHT22;23763;48.130;11.602;2023-12-28T03:55:59;6.40;99.90
37938;DHT22;23763;48.130;11.602;2023-12-28T03:58:25;6.40;99.90
37938;DHT22;23763;48.130;11.602;2023-12-28T04:00:51;6.50;99.90
37938;DHT22;23763;48.130;11.602;2023-12-28T04:03:17;6.50;99.90
37938;DHT22;23763;48.130;11.602;2023-12-28T04:05:43;6.50;99.90
37938;DHT22;23763;48.130;11.602;2023-12-28T04:08:09;6.40;99.90
37938;DHT22;23763;48.130;11.602;2023-12-28T04:10:35;6.40;99.90
37938;DHT22;23763;48.130;11.602;2023-12-28T04:13:04;6.40;99.90
37938;DHT22;23763;48.130;11.602;2023-12-28T04:15:30;6.40;99.90
37938;DHT22;23763;48.130;11.602;2023-12-28T04:17:56;6.30;99.90
37938;DHT22;23763;48.130;11.602;2023-12-28T04:20:21;6.40;99.90
37938;DHT22;23763;48.130;11.602;2023-12-28T04:22:47;6.30;99.90
37938;DHT22;23763;48.130;11.602;2023-12-28T04:25:13;6.30;99.90
37938;DHT22;23763;48.130;11.602;2023-12-28T04:27:39;6.30;99.90
37938;DHT22;23763;48.130;11.602;2023-12-28T04:30:05;6.30;99.90
37938;DHT22;23763;48.130;11.602;2023-12-28T04:32:34;6.20;99.90
37938;DHT22;23763;48.130;11.602;2023-12-28T04:35:00;6.10;99.90
37938;DHT22;23763;48.130;11.602;2023-12-28T04:37:25;6.10;99.90
37938;DHT22;23763;48.130;11.602;2023-12-28T04:39:52;6.10;99.90
37938;DHT22;23763;48.130;11.602;2023-12-28T04:42:18;6.10;99.90
37938;DHT22;23763;48.130;11.602;2023-12-28T04:44:44;6.10;99.90
37938;DHT22;23763;48.130;11.602;2023-12-28T04:47:09;6.20;99.90
37938;DHT22;23763;48.130;11.602;2023-12-28T04:49:36;6.20;99.90
37938;DHT22;23763;48.130;11.602;2023-12-28T04:52:02;6.20;99.90
37938;DHT22;23763;48.130;11.602;2023-12-28T04:54:28;6.20;99.90
37938;DHT22;23763;48.130;11.602;2023-12-28T04:56:53;6.40;99.90
37938;DHT22;23763;48.130;11.602;2023-12-28T04:59:19;6.40;99.90
37938;DHT22;23763;48.130;11.602;2023-12-28T05:01:45;6.40;99.90
37938;DHT22;23763;48.130;11.602;2023-12-28T05:04:11;6.40;99.90
37938;DHT22;23763;48.130;11.602;2023-12-28T05:06:37;6.40;99.90
37938;DHT22;23763;48.130;11.602;2023-12-28T05:09:03;6.40;99.90
37938;DHT22;23763;48.130;11.602;2023-12-28T05:11:30;6.40;99.90
37938;DHT22;23763;48.130;11.602;2023-12-28T05:13:55;6.30;99.90
37938;DHT22;23763;48.130;11.602;2023-12-28T05:16:21;6.30;99.90
37938;DHT22;23763;48.130;11.602;2023-12-28T05:18:47;6.30;99.90
37938;DHT22;23763;48.130;11.602;2023-12-28T05:21:13;6.20;99.90
37938;DHT22;23763;48.130;11.602;2023-12-28T05:23:38;6.30;99.90
37938;DHT22;23763;48.130;11.602;2023-12-28T05:26:04;6.30;99.90
37938;DHT22;23763;48.130;11.602;2023-12-28T05:28:30;6.30;99.90
37938;DHT22;23763;48.130;11.602;2023-12-28T05:30:56;6.30;99.90
37938;DHT22;23763;48.130;11.602;2023-12-28T05:33:22;6.30;99.90
37938;DHT22;23763;48.130;11.602;2023-12-28T05:35:48;6.30;99.90
37938;DHT22;23763;48.130;11.602;2023-12-28T05:38:13;6.40;99.90
37938;DHT22;23763;48.130;11.602;2023-12-28T05:40:39;6.40;99.90
37938;DHT22;23763;48.130;11.602;2023-12-28T05:43:05;6.40;99.90
37938;DHT22;23763;48.130;11.602;2023-12-28T05:45:31;6.40;99.90
37938;DHT22;23763;48.130;11.602;2023-12-28T05:47:57;6.30;99.90
37938;DHT22;23763;48.130;11.602;2023-12-28T05:50:22;6.30;99.90
37938;DHT22;23763;48.130;11.602;2023-12-28T05:52:48;6.30;99.90
37938;DHT22;23763;48.130;11.602;2023-12-28T05:55:14;6.30;99.90
37938;DHT22;23763;48.130;11.602;2023-12-28T05:57:39;6.20;99.90
37938;DHT22;23763;48.130;11.602;2023-12-28T06:00:05;6.10;99.90
37938;DHT22;23763;48.130;11.602;2023-12-28T06:02:32;6.00;99.90
37938;DHT22;23763;48.130;11.602;2023-12-28T06:04:57;6.00;99.90
37938;DHT22;23763;48.130;11.602;2023-12-28T06:07:23;6.00;99.90
37938;DHT22;23763;48.130;11.602;2023-12-28T06:09:49;6.00;99.90
37938;DHT22;23763;48.130;11.602;2023-12-28T06:12:14;5.90;99.90
37938;DHT22;23763;48.130;11.602;2023-12-28T06:14:40;6.00;99.90
37938;DHT22;23763;48.130;11.602;2023-12-28T06:17:07;6.10;99.90
37938;DHT22;23763;48.130;11.602;2023-12-28T06:19:33;6.20;99.90
37938;DHT22;23763;48.130;11.602;2023-12-28T06:21:58;6.20;99.90
37938;DHT22;23763;48.130;11.602;2023-12-28T06:24:24;6.20;99.90
37938;DHT22;23763;48.130;11.602;2023-12-28T06:26:50;6.20;99.90
37938;DHT22;23763;48.130;11.602;2023-12-28T06:29:16;6.10;99.90
37938;DHT22;23763;48.130;11.602;2023-12-28T06:31:41;6.20;99.90
37938;DHT22;23763;48.130;11.602;2023-12-28T06:34:07;6.20;99.90
37938;DHT22;23763;48.130;11.602;2023-12-28T06:36:33;6.30;99.90
37938;DHT22;23763;48.130;11.602;2023-12-28T06:38:59;6.30;99.90
37938;DHT22;23763;48.130;11.602;2023-12-28T06:41:25;6.30;99.90
37938;DHT22;23763;48.130;11.602;2023-12-28T06:43:52;6.20;99.90
37938;DHT22;23763;48.130;11.602;2023-12-28T06:46:18;6.20;99.90
37938;DHT22;23763;48.130;11.602;2023-12-28T06:48:44;6.20;99.90
37938;DHT22;23763;48.130;11.602;2023-12-28T06:51:16;6.20;99.90
37938;DHT22;23763;48.130;11.602;2023-12-28T06:53:41;6.30;99.90
37938;DHT22;23763;48.130;11.602;2023-12-28T06:56:07;6.30;99.90
37938;DHT22;23763;48.130;11.602;2023-12-28T06:58:33;6.40;99.90
37938;DHT22;23763;48.130;11.602;2023-12-28T07:00:58;6.40;99.90
37938;DHT22;23763;48.130;11.602;2023-12-28T07:03:24;6.40;99.90
37938;DHT22;23763;48.130;11.602;2023-12-28T07:05:55;6.40;99.90
37938;DHT22;23763;48.130;11.602;2023-12-28T07:08:21;6.50;99.90
37938;DHT22;23763;48.130;11.602;2023-12-28T07:10:46;6.60;99.90
37938;DHT22;23763;48.130;11.602;2023-12-28T07:13:12;6.50;99.90
37938;DHT22;23763;48.130;11.602;2023-12-28T07:15:38;6.60;99.90
37938;DHT22;23763;48.130;11.602;2023-12-28T07:18:04;6.60;99.90
37938;DHT22;23763;48.130;11.602;2023-12-28T07:20:29;6.60;99.90
37938;DHT22;23763;48.130;11.602;2023-12-28T07:22:55;6.60;99.90
37938;DHT22;23763;48.130;11.602;2023-12-28T07:25:21;6.60;99.90
37938;DHT22;23763;48.130;11.602;2023-12-28T07:27:46;6.60;99.90
37938;DHT22;23763;48.130;11.602;2023-12-28T07:30:12;6.60;99.90
37938;DHT22;23763;48.130;11.602;2023-12-28T07:32:47;6.60;99.90
37938;DHT22;23763;48.130;11.602;2023-12-28T07:35:13;6.50;99.90
37938;DHT22;23763;48.130;11.602;2023-12-28T07:37:39;6.60;99.90
37938;DHT22;23763;48.130;11.602;2023-12-28T07:40:05;6.60;99.90
37938;DHT22;23763;48.130;11.602;2023-12-28T07:42:31;6.60;99.90
37938;DHT22;23763;48.130;11.602;2023-12-28T07:44:57;6.70;99.90
37938;DHT22;23763;48.130;11.602;2023-12-28T07:47:22;6.70;99.90
37938;DHT22;23763;48.130;11.602;2023-12-28T07:49:48;6.70;99.90
37938;DHT22;23763;48.130;11.602;2023-12-28T07:52:14;6.70;99.90
37938;DHT22;23763;48.130;11.602;2023-12-28T07:54:39;6.70;99.90
37938;DHT22;23763;48.130;11.602;2023-12-28T07:57:05;6.80;99.90
37938;DHT22;23763;48.130;11.602;2023-12-28T07:59:31;6.80;99.90
37938;DHT22;23763;48.130;11.602;2023-12-28T08:01:57;7.00;99.90
37938;DHT22;23763;48.130;11.602;2023-12-28T08:04:22;7.00;99.90
37938;DHT22;23763;48.130;11.602;2023-12-28T08:06:48;7.00;99.90
37938;DHT22;23763;48.130;11.602;2023-12-28T08:09:14;7.10;99.90
37938;DHT22;23763;48.130;11.602;2023-12-28T08:11:40;7.20;99.90
37938;DHT22;23763;48.130;11.602;2023-12-28T08:14:05;7.20;99.90
37938;DHT22;23763;48.130;11.602;2023-12-28T08:16:31;7.30;99.90
37938;DHT22;23763;48.130;11.602;2023-12-28T08:18:57;7.30;99.90
37938;DHT22;23763;48.130;11.602;2023-12-28T08:21:22;7.50;99.90
37938;DHT22;23763;48.130;11.602;2023-12-28T08:23:48;7.60;99.90
37938;DHT22;23763;48.130;11.602;2023-12-28T08:26:14;7.70;99.90
37938;DHT22;23763;48.130;11.602;2023-12-28T08:28:40;7.90;99.90
37938;DHT22;23763;48.130;11.602;2023-12-28T08:31:06;7.90;99.90
37938;DHT22;23763;48.130;11.602;2023-12-28T08:33:34;8.00;99.90
37938;DHT22;23763;48.130;11.602;2023-12-28T08:36:02;8.10;99.90
37938;DHT22;23763;48.130;11.602;2023-12-28T08:38:28;8.20;99.90
37938;DHT22;23763;48.130;11.602;2023-12-28T08:40:56;8.30;99.90
37938;DHT22;23763;48.130;11.602;2023-12-28T08:43:25;8.50;99.90
37938;DHT22;23763;48.130;11.602;2023-12-28T08:46:01;8.60;99.90
37938;DHT22;23763;48.130;11.602;2023-12-28T08:48:27;8.80;99.90
37938;DHT22;23763;48.130;11.602;2023-12-28T08:50:52;8.90;99.90
37938;DHT22;23763;48.130;11.602;2023-12-28T08:53:18;9.00;99.90
37938;DHT22;23763;48.130;11.602;2023-12-28T08:55:44;9.10;99.90
37938;DHT22;23763;48.130;11.602;2023-12-28T08:58:09;9.10;99.90
37938;DHT22;23763;48.130;11.602;2023-12-28T09:00:35;9.30;99.90
37938;DHT22;23763;48.130;11.602;2023-12-28T09:03:01;9.40;99.90
37938;DHT22;23763;48.130;11.602;2023-12-28T09:05:27;9.50;99.90
37938;DHT22;23763;48.130;11.602;2023-12-28T09:07:52;9.50;99.90
37938;DHT22;23763;48.130;11.602;2023-12-28T09:10:18;9.60;99.90
37938;DHT22;23763;48.130;11.602;2023-12-28T09:12:44;9.60;99.90
37938;DHT22;23763;48.130;11.602;2023-12-28T09:15:10;9.60;99.90
37938;DHT22;23763;48.130;11.602;2023-12-28T09:17:36;9.60;99.90
37938;DHT22;23763;48.130;11.602;2023-12-28T09:20:03;9.70;99.90
37938;DHT22;23763;48.130;11.602;2023-12-28T09:22:29;9.70;99.90
37938;DHT22;23763;48.130;11.602;2023-12-28T09:24:55;9.70;99.90
37938;DHT22;23763;48.130;11.602;2023-12-28T09:27:20;9.90;99.90
37938;DHT22;23763;48.130;11.602;2023-12-28T09:29:46;9.90;99.90
37938;DHT22;23763;48.130;11.602;2023-12-28T09:32:12;10.00;99.90
37938;DHT22;23763;48.130;11.602;2023-12-28T09:34:37;10.00;99.90
37938;DHT22;23763;48.130;11.602;2023-12-28T09:37:03;10.10;99.90
37938;DHT22;23763;48.130;11.602;2023-12-28T09:39:29;10.20;99.90
37938;DHT22;23763;48.130;11.602;2023-12-28T09:42:04;10.20;99.70
37938;DHT22;23763;48.130;11.602;2023-12-28T09:44:32;10.20;99.60
37938;DHT22;23763;48.130;11.602;2023-12-28T09:47:01;10.30;99.70
37938;DHT22;23763;48.130;11.602;2023-12-28T09:49:28;10.30;99.60
37938;DHT22;23763;48.130;11.602;2023-12-28T09:51:55;10.40;99.30
37938;DHT22;23763;48.130;11.602;2023-12-28T09:54:21;10.40;99.30
37938;DHT22;23763;48.130;11.602;2023-12-28T09:56:47;10.50;99.40
37938;DHT22;23763;48.130;11.602;2023-12-28T09:59:14;10.50;99.30
37938;DHT22;23763;48.130;11.602;2023-12-28T10:01:42;10.70;99.30
37938;DHT22;23763;48.130;11.602;2023-12-28T10:04:08;10.70;99.10
37938;DHT22;23763;48.130;11.602;2023-12-28T10:06:35;10.70;99.20
37938;DHT22;23763;48.130;11.602;2023-12-28T10:09:00;10.70;99.10
37938;DHT22;23763;48.130;11.602;2023-12-28T10:11:26;10.80;99.20
37938;DHT22;23763;48.130;11.602;2023-12-28T10:13:53;10.80;99.30
37938;DHT22;23763;48.130;11.602;2023-12-28T10:16:19;10.80;99.20
37938;DHT22;23763;48.130;11.602;2023-12-28T10:18:45;10.90;99.20
37938;DHT22;23763;48.130;11.602;2023-12-28T10:21:11;11.00;99.10
37938;DHT22;23763;48.130;11.602;2023-12-28T10:23:38;11.00;99.00
37938;DHT22;23763;48.130;11.602;2023-12-28T10:26:04;11.00;99.10
37938;DHT22;23763;48.130;11.602;2023-12-28T10:28:35;11.00;99.00
37938;DHT22;23763;48.130;11.602;2023-12-28T10:31:03;11.00;99.20
37938;DHT22;23763;48.130;11.602;2023-12-28T10:33:38;11.00;99.50
37938;DHT22;23763;48.130;11.602;2023-12-28T10:36:08;11.10;99.40
37938;DHT22;23763;48.130;11.602;2023-12-28T10:38:37;11.10;99.60
37938;DHT22;23763;48.130;11.602;2023-12-28T10:41:06;11.20;99.10
37938;DHT22;23763;48.130;11.602;2023-12-28T10:43:56;11.30;99.10
37938;DHT22;23763;48.130;11.602;2023-12-28T10:46:31;11.20;99.10
37938;DHT22;23763;48.130;11.602;2023-12-28T10:49:05;11.30;98.90
37938;DHT22;23763;48.130;11.602;2023-12-28T10:51:36;11.40;98.30
37938;DHT22;23763;48.130;11.602;2023-12-28T10:57:27;11.40;98.20
37938;DHT22;23763;48.130;11.602;2023-12-28T11:00:11;11.40;98.10
37938;DHT22;23763;48.130;11.602;2023-12-28T11:03:02;11.50;97.90
37938;DHT22;23763;48.130;11.602;2023-12-28T11:05:40;11.50;97.90
37938;DHT22;23763;48.130;11.602;2023-12-28T11:08:12;11.60;97.70
37938;DHT22;23763;48.130;11.602;2023-12-28T11:10:39;11.60;97.60
37938;DHT22;23763;48.130;11.602;2023-12-28T11:13:10;11.60;97.60
37938;DHT22;23763;48.130;11.602;2023-12-28T11:15:44;11.70;97.50
37938;DHT22;23763;48.130;11.602;2023-12-28T11:21:21;11.90;97.60
37938;DHT22;23763;48.130;11.602;2023-12-28T11:24:01;11.90;97.70
37938;DHT22;23763;48.130;11.602;2023-12-28T11:30:00;11.90;97.70
37938;DHT22;23763;48.130;11.602;2023-12-28T11:32:28;11.90;97.90
37938;DHT22;23763;48.130;11.602;2023-12-28T11:34:58;12.00;98.00
37938;DHT22;23763;48.130;11.602;2023-12-28T11:37:33;12.00;97.70
37938;DHT22;23763;48.130;11.602;2023-12-28T11:40:22;12.10;97.80
37938;DHT22;23763;48.130;11.602;2023-12-28T11:42:54;12.00;97.60
37938;DHT22;23763;48.130;11.602;2023-12-28T11:45:22;12.10;97.60
37938;DHT22;23763;48.130;11.602;2023-12-28T11:48:04;12.00;97.30
37938;DHT22;23763;48.130;11.602;2023-12-28T11:50:33;12.10;97.30
37938;DHT22;23763;48.130;11.602;2023-12-28T11:53:06;12.10;97.50
37938;DHT22;23763;48.130;11.602;2023-12-28T11:59:00;11.90;97.40
37938;DHT22;23763;48.130;11.602;2023-12-28T12:01:55;12.10;97.80
37938;DHT22;23763;48.130;11.602;2023-12-28T12:04:26;12.00;97.40
37938;DHT22;23763;48.130;11.602;2023-12-28T12:07:04;11.90;97.70
37938;DHT22;23763;48.130;11.602;2023-12-28T12:09:35;12.00;97.70
37938;DHT22;23763;48.130;11.602;2023-12-28T12:12:06;12.00;97.50
37938;DHT22;23763;48.130;11.602;2023-12-28T12:14:32;12.10;97.60
37938;DHT22;23763;48.130;11.602;2023-12-28T12:17:03;12.10;97.70
37938;DHT22;23763;48.130;11.602;2023-12-28T12:19:38;12.00;97.70
37938;DHT22;23763;48.130;11.602;2023-12-28T12:22:07;12.10;98.00
37938;DHT22;23763;48.130;11.602;2023-12-28T12:24:39;12.10;97.80
37938;DHT22;23763;48.130;11.602;2023-12-28T12:27:15;12.20;97.80
37938;DHT22;23763;48.130;11.602;2023-12-28T12:29:46;12.10;97.80
37938;DHT22;23763;48.130;11.602;2023-12-28T12:32:15;12.30;97.70
37938;DHT22;23763;48.130;11.602;2023-12-28T12:34:44;12.20;97.90
37938;DHT22;23763;48.130;11.602;2023-12-28T12:37:16;12.10;98.40
37938;DHT22;23763;48.130;11.602;2023-12-28T12:39:54;12.10;98.20
37938;DHT22;23763;48.130;11.602;2023-12-28T12:42:25;12.10;98.20
37938;DHT22;23763;48.130;11.602;2023-12-28T12:44:58;12.00;98.10
37938;DHT22;23763;48.130;11.602;2023-12-28T12:47:32;12.20;98.30
37938;DHT22;23763;48.130;11.602;2023-12-28T12:50:00;12.00;98.30
37938;DHT22;23763;48.130;11.602;2023-12-28T12:52:41;12.10;98.40
37938;DHT22;23763;48.130;11.602;2023-12-28T12:55:12;12.00;98.40
37938;DHT22;23763;48.130;11.602;2023-12-28T12:57:41;12.10;98.50
37938;DHT22;23763;48.130;11.602;2023-12-28T13:00:11;12.10;98.60
37938;DHT22;23763;48.130;11.602;2023-12-28T13:02:39;12.10;98.50
37938;DHT22;23763;48.130;11.602;2023-12-28T13:05:11;12.20;98.70
37938;DHT22;23763;48.130;11.602;2023-12-28T13:07:42;12.10;98.80
37938;DHT22;23763;48.130;11.602;2023-12-28T13:10:34;12.10;98.90
37938;DHT22;23763;48.130;11.602;2023-12-28T13:13:08;12.10;99.20
37938;DHT22;23763;48.130;11.602;2023-12-28T13:15:39;12.00;99.20
37938;DHT22;23763;48.130;11.602;2023-12-28T13:18:08;12.00;99.20
37938;DHT22;23763;48.130;11.602;2023-12-28T13:20:37;12.10;99.40
37938;DHT22;23763;48.130;11.602;2023-12-28T13:23:03;12.10;99.40
37938;DHT22;23763;48.130;11.602;2023-12-28T13:25:40;12.00;99.40
37938;DHT22;23763;48.130;11.602;2023-12-28T13:28:06;12.10;99.40
37938;DHT22;23763;48.130;11.602;2023-12-28T13:30:46;12.10;99.50
37938;DHT22;23763;48.130;11.602;2023-12-28T13:33:44;12.00;99.80
37938;DHT22;23763;48.130;11.602;2023-12-28T13:36:30;12.10;99.90
37938;DHT22;23763;48.130;11.602;2023-12-28T13:38:59;12.10;99.90
37938;DHT22;23763;48.130;11.602;2023-12-28T13:41:47;11.90;99.90
37938;DHT22;23763;48.130;11.602;2023-12-28T13:44:25;11.90;99.90
37938;DHT22;23763;48.130;11.602;2023-12-28T13:46:54;11.90;99.90
37938;DHT22;23763;48.130;11.602;2023-12-28T13:49:27;12.00;99.90
37938;DHT22;23763;48.130;11.602;2023-12-28T13:51:58;12.00;99.90
37938;DHT22;23763;48.130;11.602;2023-12-28T13:54:27;12.00;99.90
37938;DHT22;23763;48.130;11.602;2023-12-28T13:59:52;12.00;99.90
37938;DHT22;23763;48.130;11.602;2023-12-28T14:02:29;12.00;99.90
37938;DHT22;23763;48.130;11.602;2023-12-28T14:04:55;11.90;99.90
37938;DHT22;23763;48.130;11.602;2023-12-28T14:07:23;11.90;99.90
37938;DHT22;23763;48.130;11.602;2023-12-28T14:09:52;11.70;99.90
37938;DHT22;23763;48.130;11.602;2023-12-28T14:12:20;11.80;99.90
37938;DHT22;23763;48.130;11.602;2023-12-28T14:14:46;11.80;99.90
37938;DHT22;23763;48.130;11.602;2023-12-28T14:17:17;11.80;99.90
37938;DHT22;23763;48.130;11.602;2023-12-28T14:19:49;11.80;99.90
37938;DHT22;23763;48.130;11.602;2023-12-28T14:22:19;11.80;99.90
37938;DHT22;23763;48.130;11.602;2023-12-28T14:25:11;11.90;99.90
37938;DHT22;23763;48.130;11.602;2023-12-28T14:27:49;11.80;99.90
37938;DHT22;23763;48.130;11.602;2023-12-28T14:30:24;11.80;99.90
37938;DHT22;23763;48.130;11.602;2023-12-28T14:32:56;11.80;99.90
37938;DHT22;23763;48.130;11.602;2023-12-28T14:35:25;11.70;99.90
37938;DHT22;23763;48.130;11.602;2023-12-28T14:37:51;11.70;99.90
37938;DHT22;23763;48.130;11.602;2023-12-28T14:40:26;11.50;99.90
37938;DHT22;23763;48.130;11.602;2023-12-28T14:42:55;11.60;99.90
37938;DHT22;23763;48.130;11.602;2023-12-28T14:45:39;11.50;99.90
37938;DHT22;23763;48.130;11.602;2023-12-28T14:48:05;11.50;99.90
37938;DHT22;23763;48.130;11.602;2023-12-28T14:50:31;11.40;99.90
37938;DHT22;23763;48.130;11.602;2023-12-28T14:53:03;11.50;99.90
37938;DHT22;23763;48.130;11.602;2023-12-28T14:55:44;11.50;99.90
37938;DHT22;23763;48.130;11.602;2023-12-28T14:58:15;11.30;99.90
37938;DHT22;23763;48.130;11.602;2023-12-28T15:00:45;11.30;99.90
37938;DHT22;23763;48.130;11.602;2023-12-28T15:03:16;11.30;99.90
37938;DHT22;23763;48.130;11.602;2023-12-28T15:05:43;11.20;99.90
37938;DHT22;23763;48.130;11.602;2023-12-28T15:08:14;11.30;99.90
37938;DHT22;23763;48.130;11.602;2023-12-28T15:10:41;11.30;99.90
37938;DHT22;23763;48.130;11.602;2023-12-28T15:13:07;11.20;99.90
37938;DHT22;23763;48.130;11.602;2023-12-28T15:15:41;11.10;99.90
37938;DHT22;23763;48.130;11.602;2023-12-28T15:18:10;11.20;99.90
37938;DHT22;23763;48.130;11.602;2023-12-28T15:20:45;11.20;99.90
37938;DHT22;23763;48.130;11.602;2023-12-28T15:23:21;11.10;99.90
37938;DHT22;23763;48.130;11.602;2023-12-28T15:25:51;11.10;99.90
37938;DHT22;23763;48.130;11.602;2023-12-28T15:28:22;11.10;99.90
37938;DHT22;23763;48.130;11.602;2023-12-28T15:30:49;11.00;99.90
37938;DHT22;23763;48.130;11.602;2023-12-28T15:33:17;11.00;99.90
37938;DHT22;23763;48.130;11.602;2023-12-28T15:35:54;10.90;99.90
37938;DHT22;23763;48.130;11.602;2023-12-28T15:38:23;11.00;99.90
37938;DHT22;23763;48.130;11.602;2023-12-28T15:40:51;11.10;99.90
37938;DHT22;23763;48.130;11.602;2023-12-28T15:43:20;11.00;99.90
37938;DHT22;23763;48.130;11.602;2023-12-28T15:45:46;10.90;99.90
37938;DHT22;23763;48.130;11.602;2023-12-28T15:48:14;10.90;99.90
37938;DHT22;23763;48.130;11.602;2023-12-28T15:50:40;10.90;99.90
37938;DHT22;23763;48.130;11.602;2023-12-28T15:53:07;11.00;99.90